Terminal Aerodrome Forecast
Issued by NWS Memphis, TN

Home | Current Version | Previous Version | Text Only | Print | Product List | Glossary On
Versions: 1 2 3 4 5 6 7 8 9 10 11 12 13 14 15 16 17 18 19 20 21 22 23 24
000
FTUS44 KMEG 161100
TAFMEM
TAF
KMEM 161130Z 1612/1712 36005KT P6SM VCSH SCT008 OVC012
     FM161600 02007KT P6SM SCT015 BKN025
     FM162000 02007KT P6SM BKN035
     FM170000 03005KT P6SM SCT025 BKN100=

USA.gov is the U.S. government's official web portal to all federal, state and local government web resources and services.